createdAt,value
2023-04-02T00:00:36.744Z,99758.03
2023-04-02T00:03:10.261Z,99755.31
2023-04-02T00:05:50.098Z,99757.09
2023-04-02T00:08:23.458Z,99763.94
2023-04-02T00:10:53.345Z,99764.72
2023-04-02T00:13:28.689Z,99765.22
2023-04-02T00:16:00.277Z,99772.09
2023-04-02T00:18:27.487Z,99775.44
2023-04-02T00:21:03.275Z,99782.53
2023-04-02T00:23:32.042Z,99777.34
2023-04-02T00:25:58.413Z,99782.84
2023-04-02T00:28:24.969Z,99783.22
2023-04-02T00:30:55.029Z,99783.59
2023-04-02T00:33:25.649Z,99781.69
2023-04-02T00:35:54.406Z,99785.59
2023-04-02T00:38:31.704Z,99792.28
2023-04-02T00:41:09.594Z,99790.75
2023-04-02T00:43:39.670Z,99795.06
2023-04-02T00:46:14.787Z,99790.22
2023-04-02T00:48:49.149Z,99793.13
2023-04-02T00:51:17.657Z,99793.81
2023-04-02T00:53:47.191Z,99792.00
2023-04-02T00:56:20.564Z,99798.28
2023-04-02T00:58:53.110Z,99791.47
2023-04-02T01:01:24.659Z,99793.56
2023-04-02T01:03:59.642Z,99794.81
2023-04-02T01:06:31.112Z,99796.00
2023-04-02T01:09:03.823Z,99798.00
2023-04-02T01:11:55.568Z,99795.94
2023-04-02T01:15:01.165Z,99802.44
2023-04-02T01:17:50.202Z,99796.91
2023-04-02T01:20:28.646Z,99807.41
2023-04-02T01:23:08.095Z,99807.59
2023-04-02T01:25:34.546Z,99814.13
2023-04-02T01:28:19.535Z,99818.94
2023-04-02T01:30:55.920Z,99822.19
2023-04-02T01:34:01.087Z,99816.69
2023-04-02T01:36:41.072Z,99818.94
2023-04-02T01:39:21.392Z,99813.66
2023-04-02T01:42:17.485Z,99821.47
2023-04-02T01:44:48.951Z,99827.81
2023-04-02T01:47:21.443Z,99831.53
2023-04-02T01:49:47.887Z,99826.72
2023-04-02T01:52:35.852Z,99827.38
2023-04-02T01:55:03.513Z,99830.88
2023-04-02T01:57:31.136Z,99829.44
2023-04-02T02:00:02.630Z,99836.59
2023-04-02T02:02:31.283Z,99834.97
2023-04-02T02:04:58.759Z,99842.41
2023-04-02T02:07:28.277Z,99829.69
2023-04-02T02:09:55.225Z,99835.88
2023-04-02T02:12:22.932Z,99841.94
2023-04-02T02:14:52.235Z,99840.59
2023-04-02T02:17:30.378Z,99843.22
2023-04-02T02:20:06.677Z,99848.09
2023-04-02T02:22:53.424Z,99849.38
2023-04-02T02:25:24.085Z,99847.47
2023-04-02T02:27:54.893Z,99847.75
2023-04-02T02:30:36.131Z,99854.19
2023-04-02T02:33:15.228Z,99857.53
2023-04-02T02:35:56.007Z,99852.91
2023-04-02T02:38:39.980Z,99869.09
2023-04-02T02:41:30.720Z,99870.47
2023-04-02T02:44:12.306Z,99866.47
2023-04-02T02:47:00.280Z,99869.66
2023-04-02T02:49:38.019Z,99875.81
2023-04-02T02:52:10.433Z,99872.13
2023-04-02T02:54:40.362Z,99868.50
2023-04-02T02:57:13.187Z,99874.38
2023-04-02T02:59:40.802Z,99874.28
2023-04-02T03:02:08.056Z,99874.28
2023-04-02T03:04:36.269Z,99880.97
2023-04-02T03:07:05.878Z,99885.69
2023-04-02T03:10:09.955Z,99884.56
2023-04-02T03:12:43.899Z,99884.31
2023-04-02T03:15:32.328Z,99895.94
2023-04-02T03:18:04.717Z,99893.31
2023-04-02T03:20:39.319Z,99894.22
2023-04-02T03:23:23.737Z,99896.75
2023-04-02T03:26:12.464Z,99906.00
2023-04-02T03:28:43.602Z,99903.91
2023-04-02T03:31:38.175Z,99907.25
2023-04-02T03:34:13.789Z,99911.88
2023-04-02T03:36:53.199Z,99911.69
2023-04-02T03:39:25.241Z,99918.94
2023-04-02T03:42:10.148Z,99917.56
2023-04-02T03:44:44.236Z,99918.56
2023-04-02T03:47:19.935Z,99925.44
2023-04-02T03:49:49.589Z,99924.97
2023-04-02T03:52:29.903Z,99928.41
2023-04-02T03:54:59.993Z,99937.50
2023-04-02T03:57:36.876Z,99942.81
2023-04-02T04:00:27.051Z,99939.59
2023-04-02T04:02:59.155Z,99943.31
2023-04-02T04:05:50.578Z,99949.22
2023-04-02T04:08:25.180Z,99948.13
2023-04-02T04:10:58.943Z,99954.09
2023-04-02T04:13:37.061Z,99962.31
2023-04-02T04:16:11.834Z,99963.94
2023-04-02T04:18:52.271Z,99961.63
2023-04-02T04:21:37.664Z,99967.63
2023-04-02T04:24:17.042Z,99966.75
2023-04-02T04:27:09.995Z,99964.44
2023-04-02T04:29:45.684Z,99975.91
2023-04-02T04:32:32.065Z,99973.63
2023-04-02T04:35:04.656Z,99981.63
2023-04-02T04:37:36.560Z,99985.72
2023-04-02T04:40:09.243Z,99990.47
2023-04-02T04:42:39.797Z,99999.56
2023-04-02T04:45:34.181Z,99993.34
2023-04-02T04:48:04.998Z,99996.59
2023-04-02T04:50:38.595Z,100002.41
2023-04-02T04:53:07.711Z,100000.97
2023-04-02T04:55:40.638Z,100017.91
2023-04-02T04:58:24.104Z,100017.59
2023-04-02T05:00:58.704Z,100013.47
2023-04-02T05:03:55.358Z,100025.44
2023-04-02T05:06:36.971Z,100029.38
2023-04-02T05:09:27.458Z,100032.84
2023-04-02T05:12:04.140Z,100038.50
2023-04-02T05:15:07.605Z,100037.91
2023-04-02T05:17:47.838Z,100040.97
2023-04-02T05:20:17.209Z,100046.09
2023-04-02T05:22:53.103Z,100047.38
2023-04-02T05:25:27.127Z,100054.91
2023-04-02T05:28:10.902Z,100055.25
2023-04-02T05:30:49.369Z,100067.03
2023-04-02T05:33:22.846Z,100062.13
2023-04-02T05:35:58.246Z,100066.66
2023-04-02T05:38:31.537Z,100074.56
2023-04-02T05:41:07.175Z,100075.97
2023-04-02T05:43:37.624Z,100072.59
2023-04-02T05:46:14.945Z,100076.22
2023-04-02T05:48:48.368Z,100080.03
2023-04-02T05:51:25.669Z,100088.41
2023-04-02T05:54:04.918Z,100091.50
2023-04-02T05:56:40.552Z,100098.69
2023-04-02T05:59:51.006Z,100096.78
2023-04-02T06:02:39.461Z,100106.59
2023-04-02T06:05:15.823Z,100107.50
2023-04-02T06:07:48.068Z,100110.50
2023-04-02T06:10:24.908Z,100111.78
2023-04-02T06:13:02.271Z,100111.66
2023-04-02T06:15:34.752Z,100121.38
2023-04-02T06:18:25.319Z,100127.25
2023-04-02T06:20:52.347Z,100134.09
2023-04-02T06:23:21.696Z,100137.06
2023-04-02T06:26:17.152Z,100143.53
2023-04-02T06:28:51.645Z,100143.03
2023-04-02T06:31:36.222Z,100155.41
2023-04-02T06:34:06.932Z,100154.31
2023-04-02T06:36:36.382Z,100155.78
2023-04-02T06:39:09.238Z,100150.31
2023-04-02T06:41:35.643Z,100160.69
2023-04-02T06:44:16.306Z,100164.50
2023-04-02T06:46:51.849Z,100174.75
2023-04-02T06:49:44.281Z,100173.50
2023-04-02T06:52:24.021Z,100178.09
2023-04-02T06:54:50.441Z,100181.63
2023-04-02T06:57:17.094Z,100182.41
2023-04-02T06:59:43.698Z,100192.47
2023-04-02T07:02:24.673Z,100198.53
2023-04-02T07:04:51.407Z,100199.78
2023-04-02T07:07:21.191Z,100199.66
2023-04-02T07:09:47.639Z,100198.69
2023-04-02T07:12:22.354Z,100200.78
2023-04-02T07:14:48.784Z,100207.66
2023-04-02T07:17:19.550Z,100205.63
2023-04-02T07:19:49.621Z,100216.47
2023-04-02T07:22:17.573Z,100225.00
2023-04-02T07:24:44.316Z,100228.38
2023-04-02T07:27:12.132Z,100225.94
2023-04-02T07:29:44.688Z,100239.56
2023-04-02T07:32:12.756Z,100240.72
2023-04-02T07:34:42.000Z,100242.94
2023-04-02T07:37:16.380Z,100254.34
2023-04-02T07:39:45.579Z,100254.41
2023-04-02T07:42:11.910Z,100257.50
2023-04-02T07:44:38.279Z,100255.91
2023-04-02T07:47:04.907Z,100265.16
2023-04-02T07:49:31.349Z,100262.22
2023-04-02T07:51:57.810Z,100261.81
2023-04-02T07:54:24.184Z,100273.22
2023-04-02T07:56:50.833Z,100272.94
2023-04-02T07:59:17.233Z,100281.59
2023-04-02T08:01:43.780Z,100287.97
2023-04-02T08:04:21.906Z,100289.03
2023-04-02T08:06:49.547Z,100294.59
2023-04-02T08:09:17.553Z,100297.72
2023-04-02T08:11:46.751Z,100288.31
2023-04-02T08:14:13.901Z,100303.16
2023-04-02T08:16:51.771Z,100300.44
2023-04-02T08:19:19.462Z,100299.88
2023-04-02T08:21:47.942Z,100316.22
2023-04-02T08:24:14.350Z,100306.22
2023-04-02T08:26:41.702Z,100316.06
2023-04-02T08:29:11.560Z,100317.97
2023-04-02T08:31:38.300Z,100326.03
2023-04-02T08:34:04.736Z,100331.69
2023-04-02T08:36:35.478Z,100330.94
2023-04-02T08:39:01.958Z,100334.16
2023-04-02T08:41:28.898Z,100336.41
2023-04-02T08:44:08.904Z,100341.41
2023-04-02T08:46:48.346Z,100349.31
2023-04-02T08:49:19.742Z,100354.97
2023-04-02T08:51:52.202Z,100355.13
2023-04-02T08:54:25.534Z,100362.59
2023-04-02T08:56:58.125Z,100364.59
2023-04-02T08:59:38.708Z,100367.50
2023-04-02T09:02:50.292Z,100375.69
2023-04-02T09:05:23.073Z,100377.13
2023-04-02T09:07:56.318Z,100376.31
2023-04-02T09:10:30.886Z,100377.22
2023-04-02T09:12:58.638Z,100383.78
2023-04-02T09:15:36.385Z,100389.44
2023-04-02T09:18:18.766Z,100395.44
2023-04-02T09:20:48.105Z,100394.69
2023-04-02T09:23:24.165Z,100399.88
2023-04-02T09:26:03.638Z,100400.69
2023-04-02T09:28:31.541Z,100404.78
2023-04-02T09:31:19.591Z,100409.34
2023-04-02T09:33:47.302Z,100409.25
2023-04-02T09:36:35.005Z,100408.03
2023-04-02T09:39:06.983Z,100416.22
2023-04-02T09:41:40.114Z,100417.22
2023-04-02T09:44:14.096Z,100425.84
2023-04-02T09:46:54.243Z,100428.81
2023-04-02T09:49:27.107Z,100433.28
2023-04-02T09:52:06.660Z,100431.00
2023-04-02T09:54:33.221Z,100442.13
2023-04-02T09:57:00.953Z,100444.31
2023-04-02T09:59:27.815Z,100441.66
2023-04-02T10:01:54.121Z,100446.09
2023-04-02T10:04:45.007Z,100436.16
2023-04-02T10:07:36.927Z,100440.63
2023-04-02T10:10:25.239Z,100444.56
2023-04-02T10:13:00.196Z,100446.34
2023-04-02T10:15:34.166Z,100451.84
2023-04-02T10:18:08.025Z,100458.09
2023-04-02T10:20:50.432Z,100464.31
2023-04-02T10:23:19.313Z,100464.06
2023-04-02T10:25:56.832Z,100463.78
2023-04-02T10:28:52.631Z,100479.63
2023-04-02T10:31:25.480Z,100472.50
2023-04-02T10:34:08.251Z,100480.56
2023-04-02T10:36:43.551Z,100481.94
2023-04-02T10:39:33.589Z,100472.75
2023-04-02T10:42:16.505Z,100479.63
2023-04-02T10:44:55.880Z,100473.94
2023-04-02T10:47:47.247Z,100481.66
2023-04-02T10:50:59.244Z,100485.13
2023-04-02T10:53:40.600Z,100481.38
2023-04-02T10:56:12.423Z,100488.53
2023-04-02T10:58:57.818Z,100493.59
2023-04-02T11:01:30.489Z,100490.25
2023-04-02T11:04:20.799Z,100501.25
2023-04-02T11:07:07.584Z,100495.50
2023-04-02T11:09:43.264Z,100508.91
2023-04-02T11:12:23.744Z,100506.00
2023-04-02T11:14:52.063Z,100505.31
2023-04-02T11:17:20.176Z,100513.59
2023-04-02T11:19:46.957Z,100506.88
2023-04-02T11:22:25.599Z,100512.22
2023-04-02T11:24:57.025Z,100514.72
2023-04-02T11:27:31.368Z,100526.72
2023-04-02T11:30:16.026Z,100537.66
2023-04-02T11:32:51.581Z,100547.88
2023-04-02T11:35:44.267Z,100553.38
2023-04-02T11:38:10.796Z,100553.00
2023-04-02T11:40:47.161Z,100561.09
2023-04-02T11:43:32.429Z,100557.75
2023-04-02T11:46:21.877Z,100566.84
2023-04-02T11:48:48.395Z,100572.94
2023-04-02T11:51:21.447Z,100579.03
2023-04-02T11:53:50.146Z,100577.00
2023-04-02T11:56:28.526Z,100573.25
2023-04-02T11:59:03.294Z,100575.69
2023-04-02T12:01:34.903Z,100585.72
2023-04-02T12:04:22.542Z,100589.94
2023-04-02T12:07:17.802Z,100591.13
2023-04-02T12:09:44.592Z,100591.53
2023-04-02T12:12:29.924Z,100601.66
2023-04-02T12:14:58.477Z,100607.38
2023-04-02T12:17:37.290Z,100611.88
2023-04-02T12:20:10.232Z,100610.31
2023-04-02T12:22:47.640Z,100621.25
2023-04-02T12:25:39.995Z,100620.75
2023-04-02T12:28:09.450Z,100628.22
2023-04-02T12:30:40.046Z,100632.78
2023-04-02T12:33:25.048Z,100648.91
2023-04-02T12:35:58.519Z,100649.66
2023-04-02T12:38:34.664Z,100648.50
2023-04-02T12:41:06.385Z,100658.53
2023-04-02T12:43:34.917Z,100663.81
2023-04-02T12:46:05.397Z,100673.25
2023-04-02T12:48:33.466Z,100672.78
2023-04-02T12:51:04.116Z,100674.81
2023-04-02T12:53:44.274Z,100679.13
2023-04-02T12:56:22.151Z,100678.63
2023-04-02T12:58:59.728Z,100678.00
2023-04-02T13:01:31.722Z,100686.94
2023-04-02T13:04:07.679Z,100684.03
2023-04-02T13:06:38.439Z,100684.03
2023-04-02T13:09:07.360Z,100688.28
2023-04-02T13:11:39.692Z,100691.19
2023-04-02T13:14:17.356Z,100689.72
2023-04-02T13:16:46.360Z,100692.72
2023-04-02T13:19:27.186Z,100699.91
2023-04-02T13:21:55.335Z,100702.59
2023-04-02T13:24:30.327Z,100698.09
2023-04-02T13:27:01.855Z,100700.41
2023-04-02T13:29:36.274Z,100708.16
2023-04-02T13:32:11.821Z,100706.31
2023-04-02T13:34:40.901Z,100705.31
2023-04-02T13:37:12.373Z,100706.66
2023-04-02T13:39:38.739Z,100715.53
2023-04-02T13:42:07.733Z,100721.47
2023-04-02T13:44:37.492Z,100725.78
2023-04-02T13:47:04.076Z,100716.91
2023-04-02T13:49:31.775Z,100721.97
2023-04-02T13:52:03.131Z,100727.69
2023-04-02T13:54:37.203Z,100730.97
2023-04-02T13:57:03.671Z,100733.81
2023-04-02T13:59:30.294Z,100735.50
2023-04-02T14:02:03.159Z,100741.53
2023-04-02T14:04:35.326Z,100748.06
2023-04-02T14:07:02.146Z,100755.69
2023-04-02T14:09:47.865Z,100757.88
2023-04-02T14:12:23.778Z,100759.84
2023-04-02T14:15:03.695Z,100764.66
2023-04-02T14:17:52.138Z,100776.78
2023-04-02T14:20:31.001Z,100774.88
2023-04-02T14:23:22.457Z,100784.50
2023-04-02T14:25:58.074Z,100782.09
2023-04-02T14:28:37.867Z,100782.78
2023-04-02T14:31:15.578Z,100794.66
2023-04-02T14:34:11.310Z,100796.94
2023-04-02T14:36:46.045Z,100801.22
2023-04-02T14:39:18.393Z,100804.88
2023-04-02T14:42:04.478Z,100813.25
2023-04-02T14:44:38.466Z,100812.59
2023-04-02T14:47:31.267Z,100811.91
2023-04-02T14:50:06.154Z,100825.25
2023-04-02T14:52:37.564Z,100825.56
2023-04-02T14:55:14.138Z,100821.94
2023-04-02T14:57:48.985Z,100826.72
2023-04-02T15:00:36.797Z,100829.00
2023-04-02T15:03:18.916Z,100837.75
2023-04-02T15:05:53.663Z,100839.84
2023-04-02T15:08:29.861Z,100844.81
2023-04-02T15:11:02.982Z,100842.66
2023-04-02T15:13:49.098Z,100853.03
2023-04-02T15:16:23.582Z,100852.50
2023-04-02T15:18:52.076Z,100859.09
2023-04-02T15:21:29.188Z,100867.81
2023-04-02T15:24:04.177Z,100863.72
2023-04-02T15:26:55.461Z,100866.31
2023-04-02T15:29:29.528Z,100877.41
2023-04-02T15:32:40.671Z,100881.34
2023-04-02T15:35:23.174Z,100890.50
2023-04-02T15:37:49.494Z,100890.38
2023-04-02T15:40:15.904Z,100894.84
2023-04-02T15:42:52.868Z,100899.13
2023-04-02T15:45:29.111Z,100906.19
2023-04-02T15:48:21.528Z,100900.13
2023-04-02T15:51:01.767Z,100898.72
2023-04-02T15:53:48.226Z,100900.66
2023-04-02T15:56:46.050Z,100919.63
2023-04-02T15:59:41.104Z,100919.63
2023-04-02T16:02:27.404Z,100923.78
2023-04-02T16:05:03.773Z,100925.34
2023-04-02T16:07:57.474Z,100928.41
2023-04-02T16:10:41.320Z,100925.22
2023-04-02T16:13:18.213Z,100936.03
2023-04-02T16:16:01.636Z,100936.03
2023-04-02T16:18:44.144Z,100951.28
2023-04-02T16:21:13.687Z,100951.69
2023-04-02T16:23:41.906Z,100960.16
2023-04-02T16:26:26.970Z,100967.84
2023-04-02T16:29:12.485Z,100969.59
2023-04-02T16:31:57.587Z,100971.00
2023-04-02T16:35:09.512Z,100974.59
2023-04-02T16:37:56.343Z,100983.81
2023-04-02T16:40:42.845Z,100984.22
2023-04-02T16:43:39.657Z,100990.72
2023-04-02T16:46:38.724Z,100997.56
2023-04-02T16:49:36.514Z,101000.81
2023-04-02T16:52:11.665Z,101006.00
2023-04-02T16:55:02.916Z,101011.25
2023-04-02T16:57:40.080Z,101016.03
2023-04-02T17:00:30.625Z,101021.50
2023-04-02T17:03:30.460Z,101025.56
2023-04-02T17:06:23.972Z,101028.94
2023-04-02T17:09:02.656Z,101033.97
2023-04-02T17:11:35.432Z,101040.81
2023-04-02T17:14:06.423Z,101043.94
2023-04-02T17:16:43.674Z,101054.88
2023-04-02T17:19:12.794Z,101058.69
2023-04-02T17:21:46.250Z,101064.47
2023-04-02T17:24:23.982Z,101073.66
2023-04-02T17:26:55.098Z,101083.38
2023-04-02T17:29:35.023Z,101088.63
2023-04-02T17:32:03.678Z,101091.78
2023-04-02T17:34:30.546Z,101094.84
2023-04-02T17:37:07.249Z,101103.94
2023-04-02T17:39:54.959Z,101108.25
2023-04-02T17:42:30.610Z,101115.44
2023-04-02T17:45:02.999Z,101124.09
2023-04-02T17:47:48.205Z,101126.31
2023-04-02T17:50:17.591Z,101134.22
2023-04-02T17:52:56.633Z,101134.22
2023-04-02T17:55:41.608Z,101141.13
2023-04-02T17:58:50.508Z,101148.28
2023-04-02T18:01:28.817Z,101156.56
2023-04-02T18:03:58.309Z,101163.34
2023-04-02T18:06:43.955Z,101168.69
2023-04-02T18:09:38.336Z,101170.38
2023-04-02T18:12:29.567Z,101178.09
2023-04-02T18:15:05.578Z,101191.63
2023-04-02T18:18:07.695Z,101184.41
2023-04-02T18:20:53.923Z,101207.84
2023-04-02T18:23:26.126Z,101208.66
2023-04-02T18:26:05.291Z,101212.22
2023-04-02T18:28:45.819Z,101221.72
2023-04-02T18:31:18.238Z,101220.94
2023-04-02T18:33:50.853Z,101237.56
2023-04-02T18:36:23.428Z,101241.72
2023-04-02T18:39:08.222Z,101245.38
2023-04-02T18:41:50.156Z,101264.94
2023-04-02T18:44:36.200Z,101262.72
2023-04-02T18:47:30.074Z,101273.94
2023-04-02T18:50:16.327Z,101282.63
2023-04-02T18:52:43.014Z,101290.38
2023-04-02T18:55:24.879Z,101296.34
2023-04-02T18:58:24.887Z,101305.16
2023-04-02T19:00:51.947Z,101308.78
2023-04-02T19:03:51.438Z,101315.00
2023-04-02T19:06:28.723Z,101321.28
2023-04-02T19:09:01.008Z,101324.34
2023-04-02T19:11:31.447Z,101329.47
2023-04-02T19:14:04.614Z,101334.78
2023-04-02T19:16:45.002Z,101344.78
2023-04-02T19:19:27.145Z,101346.19
2023-04-02T19:22:32.366Z,101356.72
2023-04-02T19:25:05.079Z,101362.94
2023-04-02T19:27:34.039Z,101365.63
2023-04-02T19:30:00.508Z,101374.81
2023-04-02T19:32:54.896Z,101375.72
2023-04-02T19:35:28.955Z,101390.91
2023-04-02T19:38:22.134Z,101395.53
2023-04-02T19:40:58.694Z,101395.19
2023-04-02T19:43:25.506Z,101407.47
2023-04-02T19:45:56.868Z,101410.53
2023-04-02T19:48:30.854Z,101408.19
2023-04-02T19:50:57.243Z,101417.09
2023-04-02T19:53:23.787Z,101423.41
2023-04-02T19:55:50.701Z,101423.25
2023-04-02T19:58:29.698Z,101427.78
2023-04-02T20:00:56.890Z,101426.59
2023-04-02T20:03:23.640Z,101424.56
2023-04-02T20:05:50.745Z,101439.94
2023-04-02T20:08:17.521Z,101445.88
2023-04-02T20:10:44.044Z,101429.22
2023-04-02T20:13:13.185Z,101436.28
2023-04-02T20:15:41.133Z,101446.38
2023-04-02T20:18:10.862Z,101444.53
2023-04-02T20:20:39.195Z,101451.16
2023-04-02T20:23:08.035Z,101452.13
2023-04-02T20:25:36.785Z,101454.75
2023-04-02T20:28:04.017Z,101458.78
2023-04-02T20:30:35.620Z,101466.38
2023-04-02T20:33:04.906Z,101465.31
2023-04-02T20:35:34.433Z,101470.63
2023-04-02T20:38:03.013Z,101474.84
2023-04-02T20:40:29.427Z,101482.41
2023-04-02T20:42:55.949Z,101484.31
2023-04-02T20:45:22.484Z,101486.69
2023-04-02T20:47:48.939Z,101491.31
2023-04-02T20:50:17.951Z,101488.50
2023-04-02T20:52:44.774Z,101495.03
2023-04-02T20:55:13.760Z,101489.19
2023-04-02T20:57:42.594Z,101498.47
2023-04-02T21:00:10.944Z,101502.03
2023-04-02T21:02:37.597Z,101510.72
2023-04-02T21:05:04.357Z,101509.97
2023-04-02T21:07:33.194Z,101514.66
2023-04-02T21:09:59.685Z,101514.16
2023-04-02T21:12:26.044Z,101520.09
2023-04-02T21:14:57.288Z,101534.13
2023-04-02T21:17:24.126Z,101527.09
2023-04-02T21:19:50.506Z,101525.56
2023-04-02T21:22:21.734Z,101530.81
2023-04-02T21:24:48.145Z,101534.84
2023-04-02T21:27:17.300Z,101536.59
2023-04-02T21:29:48.388Z,101539.38
2023-04-02T21:32:21.755Z,101533.75
2023-04-02T21:34:48.659Z,101541.69
2023-04-02T21:37:15.417Z,101539.91
2023-04-02T21:39:41.785Z,101543.59
2023-04-02T21:42:08.307Z,101546.22
2023-04-02T21:44:34.702Z,101541.59
2023-04-02T21:47:01.222Z,101530.91
2023-04-02T21:49:28.223Z,101539.22
2023-04-02T21:51:54.710Z,101536.72
2023-04-02T21:54:21.422Z,101544.47
2023-04-02T21:56:48.553Z,101543.28
2023-04-02T21:59:16.738Z,101543.69
2023-04-02T22:01:48.487Z,101550.06
2023-04-02T22:04:24.069Z,101545.53
2023-04-02T22:06:52.156Z,101543.16
2023-04-02T22:09:22.294Z,101552.31
2023-04-02T22:11:56.106Z,101548.38
2023-04-02T22:14:23.197Z,101552.19
2023-04-02T22:16:49.667Z,101548.00
2023-04-02T22:19:19.505Z,101541.13
2023-04-02T22:21:46.252Z,101549.44
2023-04-02T22:24:14.928Z,101546.94
2023-04-02T22:26:41.857Z,101546.22
2023-04-02T22:29:08.632Z,101546.13
2023-04-02T22:31:35.777Z,101550.25
2023-04-02T22:34:03.718Z,101553.44
2023-04-02T22:36:32.872Z,101548.69
2023-04-02T22:39:05.170Z,101549.66
2023-04-02T22:41:32.071Z,101551.59
2023-04-02T22:44:02.422Z,101557.28
2023-04-02T22:46:29.972Z,101563.09
2023-04-02T22:48:56.718Z,101555.97
2023-04-02T22:51:25.582Z,101556.56
2023-04-02T22:53:54.581Z,101568.69
2023-04-02T22:56:28.489Z,101566.91
2023-04-02T22:58:55.005Z,101568.81
2023-04-02T23:01:27.105Z,101566.44
2023-04-02T23:03:55.153Z,101553.38
2023-04-02T23:06:22.662Z,101545.47
2023-04-02T23:08:49.309Z,101544.00
2023-04-02T23:11:22.172Z,101532.59
2023-04-02T23:13:50.931Z,101544.38
2023-04-02T23:16:17.995Z,101542.28
2023-04-02T23:18:47.976Z,101557.19
2023-04-02T23:21:15.906Z,101550.63
2023-04-02T23:23:42.342Z,101552.22
2023-04-02T23:26:23.780Z,101543.94
2023-04-02T23:28:53.024Z,101550.72
2023-04-02T23:31:22.105Z,101546.16
2023-04-02T23:33:49.847Z,101548.47
2023-04-02T23:36:24.787Z,101553.84
2023-04-02T23:38:56.596Z,101551.84
2023-04-02T23:41:26.687Z,101551.22
2023-04-02T23:43:54.350Z,101553.69
2023-04-02T23:46:21.085Z,101547.25
2023-04-02T23:48:52.141Z,101554.13
2023-04-02T23:51:18.812Z,101543.06
2023-04-02T23:53:45.485Z,101547.78
2023-04-02T23:56:12.088Z,101549.34
2023-04-02T23:58:38.573Z,101550.78
